Time;durP1;ratioP1;P1;durP2;ratioP2;P2;SDS_P1;SDS_P2;PMS_P1;PMS_P2;Temp;Humidity;BMP_temperature;BMP_pressure;BME280_temperature;BME280_humidity;BME280_pressure;Samples;Min_cycle;Max_cycle;Signal;HPM_P1;HPM_P2
2024/03/03 00:00:18;;;;;;;190.70;130.93;;;;;11.50;95918.00;;;;4950489;28;20215;-67
2024/03/03 00:03:07;;;;;;;175.27;115.87;;;;;11.50;95919.00;;;;4954217;28;20204;-67
2024/03/03 00:05:56;;;;;;;166.83;110.87;;;;;11.60;95911.00;;;;4949943;28;20224;-68
2024/03/03 00:08:46;;;;;;;125.70;95.20;;;;;11.60;95895.00;;;;4948008;28;20204;-68
2024/03/03 00:11:35;;;;;;;116.50;90.50;;;;;11.50;95899.00;;;;4949148;28;20216;-67
2024/03/03 00:14:26;;;;;;;119.87;91.90;;;;;11.40;95903.00;;;;4947506;28;20218;-67
2024/03/03 00:17:15;;;;;;;119.93;92.50;;;;;11.30;95908.00;;;;4950050;28;20223;-68
2024/03/03 00:20:06;;;;;;;147.53;103.47;;;;;11.30;95907.00;;;;4951034;28;20597;-67
2024/03/03 00:22:55;;;;;;;127.40;89.57;;;;;11.30;95902.00;;;;4948512;28;20197;-67
2024/03/03 00:25:44;;;;;;;130.63;88.17;;;;;11.20;95896.00;;;;4998938;23;20229;-73
2024/03/03 00:28:33;;;;;;;139.87;94.33;;;;;11.20;95896.00;;;;5012668;28;20213;-72
2024/03/03 00:31:23;;;;;;;130.93;89.63;;;;;11.10;95896.00;;;;5007289;28;20213;-72
2024/03/03 00:34:13;;;;;;;133.27;88.60;;;;;10.90;95905.00;;;;5008950;28;20213;-72
2024/03/03 00:37:02;;;;;;;141.23;92.67;;;;;10.80;95894.00;;;;4987875;28;20214;-72
2024/03/03 00:39:51;;;;;;;132.60;90.77;;;;;10.90;95892.00;;;;4987436;28;20210;-73
2024/03/03 00:42:41;;;;;;;128.17;87.53;;;;;10.90;95895.00;;;;4990280;28;20199;-72
2024/03/03 00:45:30;;;;;;;128.53;85.00;;;;;10.80;95901.00;;;;4983856;28;20223;-72
2024/03/03 00:48:20;;;;;;;128.70;85.47;;;;;10.80;95900.00;;;;4990435;28;20213;-72
2024/03/03 00:51:10;;;;;;;139.60;90.70;;;;;10.70;95894.00;;;;4988539;28;20210;-72
2024/03/03 00:53:59;;;;;;;127.57;86.67;;;;;10.80;95900.00;;;;4988109;28;20206;-72
2024/03/03 00:56:48;;;;;;;122.17;84.23;;;;;10.70;95901.00;;;;4984372;28;20307;-73
2024/03/03 00:59:38;;;;;;;124.43;85.67;;;;;10.70;95888.00;;;;4986769;28;20199;-72
2024/03/03 01:02:27;;;;;;;116.90;81.40;;;;;10.60;95895.00;;;;4987799;28;20210;-72
2024/03/03 01:05:17;;;;;;;113.93;82.57;;;;;10.60;95891.00;;;;4988338;28;20655;-71
2024/03/03 01:08:07;;;;;;;123.13;84.77;;;;;10.50;95893.00;;;;4988770;28;20586;-72
2024/03/03 01:10:56;;;;;;;118.43;82.10;;;;;10.40;95889.00;;;;4986048;28;20202;-71
2024/03/03 01:13:45;;;;;;;114.13;80.07;;;;;10.30;95896.00;;;;4984969;28;20219;-72
2024/03/03 01:16:34;;;;;;;111.77;77.70;;;;;10.30;95887.00;;;;4987405;28;20215;-72
2024/03/03 01:19:24;;;;;;;100.53;73.87;;;;;10.20;95880.00;;;;4984920;28;20202;-72
2024/03/03 01:22:14;;;;;;;106.63;79.87;;;;;10.10;95877.00;;;;4988135;28;20226;-74
2024/03/03 01:25:04;;;;;;;101.27;75.83;;;;;10.10;95872.00;;;;4988727;28;20619;-72
2024/03/03 01:27:53;;;;;;;89.30;72.30;;;;;10.00;95870.00;;;;4991786;28;20197;-73
2024/03/03 01:30:42;;;;;;;96.77;73.83;;;;;9.90;95873.00;;;;4982193;28;20306;-72
2024/03/03 01:33:31;;;;;;;90.13;70.23;;;;;9.90;95866.00;;;;4988419;28;20617;-73
2024/03/03 01:36:20;;;;;;;100.97;76.17;;;;;9.80;95859.00;;;;4977990;28;20235;-71
2024/03/03 01:39:11;;;;;;;103.00;73.77;;;;;9.80;95852.00;;;;4990133;28;20203;-72
2024/03/03 01:42:00;;;;;;;108.17;77.83;;;;;9.60;95857.00;;;;4987843;28;20572;-71
2024/03/03 01:44:49;;;;;;;114.43;79.57;;;;;9.60;95854.00;;;;4987732;28;20226;-71
2024/03/03 01:47:39;;;;;;;104.67;73.77;;;;;9.60;95854.00;;;;4988217;28;20206;-71
2024/03/03 01:50:28;;;;;;;102.50;71.63;;;;;9.00;95840.00;;;;4986630;28;20214;-71
2024/03/03 01:53:17;;;;;;;108.53;75.90;;;;;8.70;95841.00;;;;4982230;28;20234;-72
2024/03/03 01:56:08;;;;;;;120.27;78.53;;;;;8.80;95844.00;;;;4984252;28;20237;-71
2024/03/03 01:58:58;;;;;;;108.20;73.20;;;;;9.00;95841.00;;;;4984699;28;20742;-71
2024/03/03 02:01:47;;;;;;;106.27;70.87;;;;;8.90;95839.00;;;;4982487;28;20203;-72
2024/03/03 02:04:37;;;;;;;114.07;77.03;;;;;8.90;95835.00;;;;4984993;28;20199;-71
2024/03/03 02:07:26;;;;;;;103.00;68.60;;;;;8.60;95838.00;;;;4987849;28;20217;-73
2024/03/03 02:10:15;;;;;;;114.60;77.30;;;;;8.50;95829.00;;;;4986769;28;20222;-72
2024/03/03 02:13:06;;;;;;;107.27;71.17;;;;;8.60;95823.00;;;;4985962;28;20234;-71
2024/03/03 02:15:55;;;;;;;86.97;63.90;;;;;8.50;95818.00;;;;4983710;28;20276;-72
2024/03/03 02:18:44;;;;;;;92.63;66.57;;;;;8.60;95821.00;;;;4986780;28;20205;-71
2024/03/03 02:21:35;;;;;;;89.37;66.77;;;;;8.30;95822.00;;;;4986543;28;20203;-71
2024/03/03 02:24:24;;;;;;;96.23;68.73;;;;;8.40;95823.00;;;;4988426;28;20199;-72
2024/03/03 02:27:13;;;;;;;105.40;72.73;;;;;8.10;95826.00;;;;4985762;28;20213;-71
2024/03/03 02:30:03;;;;;;;278.07;163.43;;;;;7.90;95815.00;;;;4982655;28;20390;-71
2024/03/03 02:32:52;;;;;;;136.73;93.47;;;;;8.30;95817.00;;;;4986447;28;20236;-71
2024/03/03 02:35:41;;;;;;;113.20;75.10;;;;;7.90;95817.00;;;;4982715;28;20740;-71
2024/03/03 02:38:32;;;;;;;114.57;76.03;;;;;8.10;95815.00;;;;4988028;28;20210;-72
2024/03/03 02:41:21;;;;;;;108.63;71.37;;;;;8.10;95808.00;;;;4985910;28;20206;-72
2024/03/03 02:44:10;;;;;;;112.77;73.37;;;;;7.80;95815.00;;;;4987117;28;20207;-71
2024/03/03 02:46:59;;;;;;;117.90;77.83;;;;;8.00;95810.00;;;;4987549;28;20202;-72
2024/03/03 02:49:48;;;;;;;106.13;71.40;;;;;8.00;95812.00;;;;4983170;28;20214;-71
2024/03/03 02:52:37;;;;;;;100.57;67.60;;;;;8.00;95821.00;;;;4987615;28;20822;-71
2024/03/03 02:55:28;;;;;;;106.70;69.57;;;;;7.90;95817.00;;;;4987159;28;20222;-70
2024/03/03 02:58:17;;;;;;;105.80;70.90;;;;;7.70;95798.00;;;;4984243;28;20222;-71
2024/03/03 03:01:06;;;;;;;91.17;63.10;;;;;7.50;95808.00;;;;4986102;28;20557;-72
2024/03/03 03:03:55;;;;;;;84.40;62.03;;;;;7.60;95781.00;;;;4987365;28;20286;-73
2024/03/03 03:06:44;;;;;;;77.97;60.63;;;;;7.70;95795.00;;;;4987017;28;20222;-72
2024/03/03 03:09:33;;;;;;;82.90;62.30;;;;;7.20;95780.00;;;;4987105;28;20196;-72
2024/03/03 03:12:24;;;;;;;84.30;61.97;;;;;7.30;95788.00;;;;4984142;28;20207;-73
2024/03/03 03:15:13;;;;;;;86.67;62.20;;;;;7.70;95789.00;;;;4985873;28;20626;-72
2024/03/03 03:18:03;;;;;;;93.43;65.27;;;;;7.80;95783.00;;;;4986782;28;20210;-72
2024/03/03 03:20:52;;;;;;;81.00;58.13;;;;;7.80;95788.00;;;;4985984;28;20195;-72
2024/03/03 03:23:41;;;;;;;85.07;61.33;;;;;7.50;95782.00;;;;4984073;28;20203;-72
2024/03/03 03:26:30;;;;;;;88.63;62.77;;;;;7.50;95782.00;;;;4986675;28;20237;-72
2024/03/03 03:29:21;;;;;;;95.73;64.23;;;;;7.50;95791.00;;;;4995153;28;20205;-72
2024/03/03 03:32:10;;;;;;;106.63;69.40;;;;;7.60;95782.00;;;;4989369;28;20216;-71
2024/03/03 03:34:59;;;;;;;116.00;73.73;;;;;7.50;95787.00;;;;4988916;28;20720;-72
2024/03/03 03:37:48;;;;;;;92.23;61.23;;;;;7.50;95786.00;;;;4986946;28;20199;-72
2024/03/03 03:40:38;;;;;;;94.40;62.93;;;;;7.10;95794.00;;;;4989475;28;20207;-72
2024/03/03 03:43:27;;;;;;;102.60;65.73;;;;;7.30;95793.00;;;;4990696;28;20203;-72
2024/03/03 03:46:18;;;;;;;101.60;64.90;;;;;7.50;95799.00;;;;4986873;28;20230;-72
2024/03/03 03:49:09;;;;;;;111.77;70.00;;;;;7.30;95798.00;;;;4989672;28;20214;-73
2024/03/03 03:52:03;;;;;;;103.60;65.80;;;;;7.20;95796.00;;;;4984853;28;20202;-72
2024/03/03 03:54:52;;;;;;;108.70;68.33;;;;;7.10;95789.00;;;;4988580;28;20223;-71
2024/03/03 03:57:41;;;;;;;100.30;63.93;;;;;7.50;95789.00;;;;4990606;28;20710;-72
2024/03/03 04:00:31;;;;;;;97.13;63.13;;;;;7.60;95798.00;;;;4988590;28;20580;-73
2024/03/03 04:03:21;;;;;;;107.67;68.93;;;;;7.60;95795.00;;;;4989715;28;20501;-72
2024/03/03 04:06:10;;;;;;;99.60;63.13;;;;;7.60;95787.00;;;;4988825;28;20231;-71
2024/03/03 04:09:02;;;;;;;89.07;60.63;;;;;7.60;95789.00;;;;4990075;28;20203;-72
2024/03/03 04:11:51;;;;;;;93.93;63.17;;;;;7.50;95777.00;;;;4987246;28;20203;-72
2024/03/03 04:14:40;;;;;;;106.50;70.80;;;;;7.40;95778.00;;;;4989647;28;20222;-71
2024/03/03 04:17:29;;;;;;;105.73;67.70;;;;;7.40;95774.00;;;;4988387;28;20586;-72
2024/03/03 04:20:20;;;;;;;107.10;66.97;;;;;7.50;95772.00;;;;4985584;28;20206;-72
2024/03/03 04:23:09;;;;;;;118.13;72.47;;;;;7.40;95786.00;;;;4987325;28;20202;-72
2024/03/03 04:25:58;;;;;;;105.37;65.10;;;;;7.30;95785.00;;;;4986255;28;20634;-73
2024/03/03 04:28:47;;;;;;;110.97;68.97;;;;;7.00;95771.00;;;;4986043;28;20583;-72
2024/03/03 04:31:43;;;;;;;106.33;64.67;;;;;7.30;95781.00;;;;4989343;28;20925;-72
2024/03/03 04:34:39;;;;;;;105.83;67.47;;;;;7.00;95777.00;;;;4983545;28;20616;-73
2024/03/03 04:37:30;;;;;;;108.57;67.90;;;;;6.40;95773.00;;;;4984395;28;20202;-72
2024/03/03 04:40:19;;;;;;;103.47;64.27;;;;;6.50;95768.00;;;;4987497;28;20203;-73
2024/03/03 04:43:08;;;;;;;116.77;70.50;;;;;6.10;95764.00;;;;4989208;28;20202;-71
2024/03/03 04:45:58;;;;;;;96.93;60.00;;;;;6.60;95775.00;;;;4982883;28;20215;-72
2024/03/03 04:48:47;;;;;;;107.20;64.80;;;;;6.60;95780.00;;;;4988792;28;20206;-73
2024/03/03 04:51:36;;;;;;;100.20;61.27;;;;;6.80;95769.00;;;;4989311;28;20202;-72
2024/03/03 04:54:26;;;;;;;107.37;64.63;;;;;6.90;95778.00;;;;4989848;28;20712;-71
2024/03/03 04:57:15;;;;;;;122.20;71.17;;;;;6.90;95775.00;;;;4989345;28;20215;-72
2024/03/03 05:00:08;;;;;;;140.27;79.73;;;;;6.90;95778.00;;;;4987142;28;20213;-72
2024/03/03 05:02:57;;;;;;;105.67;63.27;;;;;6.90;95779.00;;;;4985990;28;20206;-72
2024/03/03 05:05:46;;;;;;;102.67;61.63;;;;;6.90;95772.00;;;;4988863;28;20219;-72
2024/03/03 05:08:35;;;;;;;109.60;64.33;;;;;6.80;95792.00;;;;4988985;28;20210;-72
2024/03/03 05:11:26;;;;;;;108.90;65.43;;;;;6.70;95777.00;;;;4987433;28;20731;-72
2024/03/03 05:14:15;;;;;;;107.33;63.30;;;;;6.40;95780.00;;;;4987839;28;20226;-71
2024/03/03 05:17:04;;;;;;;132.43;76.67;;;;;6.40;95778.00;;;;4987225;28;20605;-74
2024/03/03 05:19:54;;;;;;;107.67;64.07;;;;;6.90;95787.00;;;;4985287;28;20252;-74
2024/03/03 05:22:44;;;;;;;104.30;63.07;;;;;6.60;95778.00;;;;4983421;28;20210;-72
2024/03/03 05:25:33;;;;;;;114.37;67.70;;;;;6.80;95783.00;;;;4988146;28;20234;-71
2024/03/03 05:28:24;;;;;;;106.20;62.23;;;;;6.90;95782.00;;;;4989286;28;20206;-73
2024/03/03 05:31:13;;;;;;;113.93;66.83;;;;;6.90;95789.00;;;;4985609;28;20206;-71
2024/03/03 05:34:03;;;;;;;125.67;72.00;;;;;7.00;95788.00;;;;4988165;28;20615;-73
2024/03/03 05:36:52;;;;;;;109.97;64.33;;;;;7.10;95788.00;;;;4984413;28;20735;-73
2024/03/03 05:39:42;;;;;;;101.27;64.80;;;;;7.00;95785.00;;;;4989169;28;20203;-71
2024/03/03 05:42:31;;;;;;;100.17;64.23;;;;;7.00;95794.00;;;;4987865;28;20203;-73
2024/03/03 05:45:21;;;;;;;95.17;61.23;;;;;7.10;95784.00;;;;4986965;28;21015;-72
2024/03/03 05:48:10;;;;;;;105.37;64.73;;;;;6.90;95783.00;;;;4986283;28;20210;-73
2024/03/03 05:51:00;;;;;;;96.93;60.93;;;;;7.10;95786.00;;;;4986576;28;20229;-72
2024/03/03 05:53:49;;;;;;;91.67;59.03;;;;;7.10;95798.00;;;;4990525;28;20202;-71
2024/03/03 05:56:38;;;;;;;99.47;63.23;;;;;6.80;95789.00;;;;4988128;28;20222;-73
2024/03/03 05:59:28;;;;;;;92.53;60.17;;;;;6.80;95791.00;;;;4988449;28;20692;-73
2024/03/03 06:02:18;;;;;;;102.73;65.80;;;;;6.90;95789.00;;;;4988663;28;20206;-73
2024/03/03 06:05:08;;;;;;;107.47;67.07;;;;;7.10;95790.00;;;;4985981;28;20693;-74
2024/03/03 06:07:57;;;;;;;91.83;59.70;;;;;7.30;95784.00;;;;4988065;28;20206;-72
2024/03/03 06:10:46;;;;;;;91.13;59.30;;;;;7.20;95795.00;;;;4981233;28;20211;-72
2024/03/03 06:13:35;;;;;;;99.00;63.97;;;;;7.40;95798.00;;;;4986483;28;20716;-72
2024/03/03 06:16:25;;;;;;;99.87;64.03;;;;;7.50;95802.00;;;;4988474;28;20716;-72
2024/03/03 06:19:16;;;;;;;107.60;67.80;;;;;7.40;95791.00;;;;4986405;28;20209;-72
2024/03/03 06:22:06;;;;;;;96.53;63.60;;;;;7.60;95792.00;;;;4989682;28;20237;-73
2024/03/03 06:24:56;;;;;;;115.03;72.33;;;;;7.50;95791.00;;;;4985323;28;20653;-72
2024/03/03 06:27:46;;;;;;;99.13;64.93;;;;;7.00;95786.00;;;;4980066;28;20203;-70
2024/03/03 06:30:35;;;;;;;98.03;63.37;;;;;7.30;95792.00;;;;4986136;28;20202;-69
2024/03/03 06:33:26;;;;;;;97.73;65.30;;;;;7.50;95790.00;;;;4987011;28;20209;-69
2024/03/03 06:36:19;;;;;;;116.43;73.30;;;;;7.50;95793.00;;;;4985214;28;20227;-70
2024/03/03 06:39:10;;;;;;;112.47;72.00;;;;;7.60;95797.00;;;;4984196;28;20668;-70
2024/03/03 06:41:59;;;;;;;95.77;62.93;;;;;7.70;95795.00;;;;4987309;28;20206;-69
2024/03/03 06:44:48;;;;;;;113.47;71.20;;;;;7.80;95784.00;;;;4985380;28;20706;-69
2024/03/03 06:47:37;;;;;;;95.97;63.40;;;;;7.70;95792.00;;;;4986099;28;20214;-70
2024/03/03 06:50:26;;;;;;;101.37;65.10;;;;;7.50;95783.00;;;;4982984;28;20711;-70
2024/03/03 06:53:17;;;;;;;111.87;69.67;;;;;7.70;95791.00;;;;4985896;28;20214;-69
2024/03/03 06:56:12;;;;;;;181.60;110.40;;;;;7.80;95789.00;;;;4967105;28;20239;-69
2024/03/03 06:59:01;;;;;;;190.50;116.27;;;;;8.00;95789.00;;;;4945038;28;20220;-69
2024/03/03 07:01:50;;;;;;;144.53;91.97;;;;;7.70;95795.00;;;;4931069;28;20837;-69
2024/03/03 07:04:39;;;;;;;205.70;128.13;;;;;8.00;95785.00;;;;4946671;28;20307;-69
2024/03/03 07:07:29;;;;;;;108.23;66.67;;;;;8.30;95783.00;;;;4977210;28;20265;-69
2024/03/03 07:10:19;;;;;;;123.40;75.40;;;;;8.10;95774.00;;;;4989698;28;20210;-69
2024/03/03 07:13:09;;;;;;;115.33;71.57;;;;;8.00;95781.00;;;;4982725;28;20707;-70
2024/03/03 07:15:58;;;;;;;111.20;70.70;;;;;8.40;95789.00;;;;4989623;28;20257;-69
2024/03/03 07:18:49;;;;;;;107.00;68.10;;;;;8.50;95796.00;;;;4992433;28;20206;-70
2024/03/03 07:21:39;;;;;;;238.37;146.93;;;;;8.70;95788.00;;;;4975525;28;20214;-69
2024/03/03 07:24:28;;;;;;;103.83;67.03;;;;;8.90;95783.00;;;;4975249;28;20842;-69
2024/03/03 07:27:18;;;;;;;173.70;109.40;;;;;8.70;95800.00;;;;4988908;28;20766;-70
2024/03/03 07:30:09;;;;;;;139.47;86.70;;;;;8.90;95787.00;;;;4989084;28;20213;-69
2024/03/03 07:32:58;;;;;;;112.67;71.10;;;;;9.30;95797.00;;;;4989104;28;20221;-69
2024/03/03 07:35:47;;;;;;;116.47;73.23;;;;;9.30;95792.00;;;;4990924;28;20226;-69
2024/03/03 07:38:36;;;;;;;220.57;142.37;;;;;9.00;95789.00;;;;4942653;28;20214;-70
2024/03/03 07:41:26;;;;;;;189.73;117.90;;;;;9.10;95796.00;;;;4951268;28;20217;-69
2024/03/03 07:44:16;;;;;;;209.00;128.27;;;;;9.50;95796.00;;;;4944582;28;20218;-69
2024/03/03 07:47:06;;;;;;;249.40;151.50;;;;;9.60;95794.00;;;;4953959;28;20210;-69
2024/03/03 07:49:55;;;;;;;197.13;124.97;;;;;9.80;95802.00;;;;4946822;28;20210;-70
2024/03/03 07:52:44;;;;;;;184.87;116.57;;;;;10.00;95805.00;;;;4955181;28;20704;-69
2024/03/03 07:55:33;;;;;;;154.60;95.57;;;;;9.80;95798.00;;;;4939633;28;20242;-70
2024/03/03 07:58:23;;;;;;;127.00;79.53;;;;;9.20;95786.00;;;;4969372;28;20215;-70
2024/03/03 08:01:13;;;;;;;127.63;81.70;;;;;10.10;95797.00;;;;4980227;28;20207;-70
2024/03/03 08:04:03;;;;;;;258.40;163.37;;;;;10.60;95793.00;;;;4962444;28;20233;-70
2024/03/03 08:06:52;;;;;;;133.17;86.27;;;;;10.80;95800.00;;;;4969690;28;20742;-71
2024/03/03 08:09:42;;;;;;;139.70;86.57;;;;;10.90;95794.00;;;;4975545;28;20211;-71
2024/03/03 08:12:31;;;;;;;132.10;84.80;;;;;11.00;95791.00;;;;4978149;28;20618;-70
2024/03/03 08:15:20;;;;;;;143.13;88.97;;;;;11.30;95790.00;;;;4989023;28;20723;-70
2024/03/03 08:18:11;;;;;;;158.87;98.97;;;;;11.00;95784.00;;;;4990090;28;20207;-70
2024/03/03 08:21:00;;;;;;;124.70;81.40;;;;;11.00;95782.00;;;;4987070;28;20198;-70
2024/03/03 08:23:49;;;;;;;255.10;168.60;;;;;11.70;95787.00;;;;4929314;28;20211;-69
2024/03/03 08:26:38;;;;;;;153.63;96.07;;;;;12.00;95782.00;;;;4951260;28;20235;-68
2024/03/03 08:29:27;;;;;;;146.20;91.87;;;;;12.10;95791.00;;;;4990935;28;20704;-70
2024/03/03 08:32:16;;;;;;;285.73;181.80;;;;;12.30;95785.00;;;;4980840;28;20218;-69
2024/03/03 08:35:08;;;;;;;165.37;104.90;;;;;12.50;95790.00;;;;4981697;28;20231;-68
2024/03/03 08:37:57;;;;;;;170.37;102.37;;;;;12.70;95788.00;;;;4984382;28;20864;-70
2024/03/03 08:40:46;;;;;;;166.33;103.67;;;;;12.90;95777.00;;;;4985849;28;20682;-70
2024/03/03 08:43:35;;;;;;;177.63;108.87;;;;;13.00;95780.00;;;;4982062;28;20233;-69
2024/03/03 08:46:25;;;;;;;182.17;111.03;;;;;13.30;95794.00;;;;4986533;28;20226;-70
2024/03/03 08:49:14;;;;;;;193.03;116.03;;;;;13.40;95778.00;;;;4982269;28;20203;-68
2024/03/03 08:52:05;;;;;;;188.77;118.13;;;;;13.60;95784.00;;;;4984957;28;20199;-70
2024/03/03 08:54:55;;;;;;;313.57;196.40;;;;;13.90;95783.00;;;;4937353;28;20253;-69
2024/03/03 08:57:45;;;;;;;185.10;116.27;;;;;14.00;95773.00;;;;4983248;28;20719;-69
2024/03/03 09:00:34;;;;;;;314.13;199.47;;;;;14.20;95777.00;;;;4962533;28;20203;-69
2024/03/03 09:03:23;;;;;;;303.33;193.77;;;;;14.30;95775.00;;;;4968715;28;20883;-69
2024/03/03 09:06:12;;;;;;;312.23;199.47;;;;;13.40;95769.00;;;;4941429;28;20218;-69
2024/03/03 09:09:04;;;;;;;276.77;176.67;;;;;13.90;95777.00;;;;4938992;28;20206;-69
2024/03/03 09:11:53;;;;;;;287.53;180.60;;;;;13.40;95776.00;;;;4944550;28;20203;-68
2024/03/03 09:14:42;;;;;;;271.03;170.97;;;;;14.10;95773.00;;;;4952127;28;21415;-68
2024/03/03 09:17:31;;;;;;;306.93;187.00;;;;;14.30;95775.00;;;;4944106;28;20226;-69
2024/03/03 09:20:21;;;;;;;288.47;175.43;;;;;14.80;95776.00;;;;4942661;28;20210;-69
2024/03/03 09:23:11;;;;;;;335.60;203.57;;;;;13.80;95780.00;;;;4945939;28;20207;-68
2024/03/03 09:26:01;;;;;;;284.53;153.70;;;;;13.80;95772.00;;;;4942014;28;20235;-69
2024/03/03 09:28:50;;;;;;;342.43;196.90;;;;;14.70;95778.00;;;;4948614;28;20718;-70
2024/03/03 09:31:40;;;;;;;280.40;165.63;;;;;15.30;95783.00;;;;4941860;28;20211;-70
2024/03/03 09:34:29;;;;;;;324.33;200.53;;;;;15.50;95784.00;;;;4940162;28;20211;-70
2024/03/03 09:37:18;;;;;;;249.50;150.47;;;;;15.30;95798.00;;;;4939461;28;20265;-68
2024/03/03 09:40:15;;;;;;;338.47;218.43;;;;;15.40;95780.00;;;;4948090;28;20206;-69
2024/03/03 09:43:07;;;;;;;324.50;213.30;;;;;14.30;95787.00;;;;4946358;28;20203;-69
2024/03/03 09:45:57;;;;;;;257.03;160.30;;;;;15.40;95781.00;;;;4943329;28;20245;-69
2024/03/03 09:48:47;;;;;;;335.30;224.03;;;;;16.20;95786.00;;;;4939556;28;20207;-70
2024/03/03 09:51:38;;;;;;;303.57;194.47;;;;;16.70;95799.00;;;;4927401;28;21746;-69
2024/03/03 09:54:28;;;;;;;315.30;210.40;;;;;16.40;95798.00;;;;4943434;28;20210;-70
2024/03/03 09:57:19;;;;;;;251.37;164.00;;;;;15.50;95787.00;;;;4943311;28;20485;-70
2024/03/03 10:00:12;;;;;;;325.63;215.60;;;;;16.30;95790.00;;;;4945358;28;20213;-70
2024/03/03 10:03:02;;;;;;;277.27;192.67;;;;;16.90;95784.00;;;;4951119;28;20210;-70
2024/03/03 10:05:52;;;;;;;336.03;233.77;;;;;16.70;95793.00;;;;4964337;28;20238;-70
2024/03/03 10:08:42;;;;;;;340.67;235.70;;;;;17.00;95779.00;;;;4938294;28;20799;-70
2024/03/03 10:11:33;;;;;;;319.80;230.50;;;;;17.30;95779.00;;;;4937300;28;20217;-70
2024/03/03 10:14:23;;;;;;;224.87;165.53;;;;;17.20;95788.00;;;;4935190;28;22597;-68
2024/03/03 10:17:14;;;;;;;337.27;246.30;;;;;16.30;95782.00;;;;4936428;28;20234;-69
2024/03/03 10:20:06;;;;;;;294.63;206.93;;;;;16.10;95778.00;;;;4931993;28;21845;-70
2024/03/03 10:22:55;;;;;;;331.70;242.27;;;;;16.80;95775.00;;;;4936601;28;20353;-68
2024/03/03 10:25:54;;;;;;;254.00;183.77;;;;;17.30;95764.00;;;;4963099;28;20233;-68
2024/03/03 10:28:44;;;;;;;291.63;208.03;;;;;18.20;95771.00;;;;4934606;28;21275;-67
2024/03/03 10:31:33;;;;;;;336.63;240.70;;;;;16.70;95765.00;;;;4931465;28;20626;-67
2024/03/03 10:34:24;;;;;;;319.03;229.77;;;;;18.20;95773.00;;;;4932621;28;21577;-69
2024/03/03 10:37:15;;;;;;;350.63;254.93;;;;;18.40;95766.00;;;;4938426;28;20230;-69
2024/03/03 10:40:06;;;;;;;289.23;205.57;;;;;18.80;95761.00;;;;4931699;28;21099;-67
2024/03/03 10:42:56;;;;;;;351.60;257.93;;;;;19.20;95754.00;;;;4928404;28;20240;-69
2024/03/03 10:45:46;;;;;;;302.33;218.33;;;;;19.60;95740.00;;;;4932748;28;20245;-71
2024/03/03 10:48:36;;;;;;;384.53;280.80;;;;;18.60;95747.00;;;;4935652;28;20328;-70
2024/03/03 10:51:27;;;;;;;297.63;226.77;;;;;19.20;95733.00;;;;4934023;28;20202;-67
2024/03/03 10:54:17;;;;;;;413.17;312.87;;;;;20.20;95732.00;;;;4938455;28;20215;-70
2024/03/03 10:57:07;;;;;;;378.73;291.93;;;;;19.30;95729.00;;;;4931107;28;20222;-67
2024/03/03 10:59:57;;;;;;;407.07;319.73;;;;;19.70;95723.00;;;;4940374;28;20260;-69
2024/03/03 11:02:47;;;;;;;341.97;280.30;;;;;19.80;95709.00;;;;4934269;28;20221;-69
2024/03/03 11:05:37;;;;;;;412.93;327.73;;;;;20.40;95723.00;;;;4939302;28;20227;-68
2024/03/03 11:08:28;;;;;;;360.07;298.43;;;;;20.80;95689.00;;;;4930488;28;20214;-68
2024/03/03 11:11:21;;;;;;;455.20;362.90;;;;;20.70;95695.00;;;;4938017;28;20221;-68
2024/03/03 11:14:12;;;;;;;457.77;368.77;;;;;20.60;95696.00;;;;4940649;28;20218;-69
2024/03/03 11:17:04;;;;;;;447.87;363.00;;;;;19.50;95693.00;;;;4940056;28;20230;-69
2024/03/03 11:19:54;;;;;;;436.60;364.97;;;;;17.50;95652.00;;;;4931930;28;20207;-68
2024/03/03 11:22:49;;;;;;;318.17;277.03;;;;;17.10;95669.00;;;;4964237;28;20199;-71
2024/03/03 11:25:47;;;;;;;300.33;256.60;;;;;17.40;95673.00;;;;4985918;28;20249;-67
2024/03/03 11:28:36;;;;;;;347.40;287.10;;;;;16.70;95664.00;;;;4984785;28;20226;-68
2024/03/03 11:31:25;;;;;;;267.17;229.13;;;;;17.90;95667.00;;;;4981530;28;20207;-68
2024/03/03 11:34:15;;;;;;;265.40;221.90;;;;;16.80;95649.00;;;;4990344;28;20261;-69
2024/03/03 11:37:06;;;;;;;249.90;205.33;;;;;16.90;95645.00;;;;4985778;28;20257;-69
2024/03/03 11:39:55;;;;;;;245.80;201.10;;;;;16.80;95661.00;;;;4991008;28;20191;-67
2024/03/03 11:42:46;;;;;;;232.60;188.60;;;;;15.40;95628.00;;;;4989950;28;20210;-68
2024/03/03 11:45:46;;;;;;;221.17;175.10;;;;;15.70;95639.00;;;;4982220;28;20704;-69
2024/03/03 11:48:35;;;;;;;370.83;272.00;;;;;16.20;95607.00;;;;4952506;28;20213;-70
2024/03/03 11:51:25;;;;;;;312.97;232.43;;;;;16.80;95608.00;;;;4936222;28;20653;-68
2024/03/03 11:54:15;;;;;;;345.93;259.60;;;;;16.80;95619.00;;;;4939445;28;20277;-67
2024/03/03 11:57:05;;;;;;;316.37;239.97;;;;;17.10;95626.00;;;;4934965;28;20807;-69
2024/03/03 12:00:10;;;;;;;331.73;252.40;;;;;16.80;95618.00;;;;4943506;28;20210;-66
2024/03/03 12:03:00;;;;;;;241.30;191.40;;;;;16.70;95628.00;;;;4932591;28;20210;-72
2024/03/03 12:05:52;;;;;;;328.77;253.07;;;;;17.10;95637.00;;;;4940041;28;20234;-67
2024/03/03 12:08:42;;;;;;;246.90;197.60;;;;;17.10;95607.00;;;;4930852;28;20210;-67
2024/03/03 12:11:32;;;;;;;346.67;267.97;;;;;17.30;95612.00;;;;4934233;28;20210;-68
2024/03/03 12:14:21;;;;;;;250.27;201.27;;;;;15.90;95642.00;;;;4930464;28;20298;-68
2024/03/03 12:17:11;;;;;;;338.27;263.10;;;;;16.30;95643.00;;;;4940555;28;20688;-70
2024/03/03 12:20:01;;;;;;;358.83;269.03;;;;;17.20;95604.00;;;;4938587;28;20209;-69
2024/03/03 12:22:50;;;;;;;309.30;237.43;;;;;17.30;95630.00;;;;4947234;28;20211;-67
2024/03/03 12:25:39;;;;;;;346.43;264.97;;;;;17.10;95648.00;;;;4942569;28;20245;-70
2024/03/03 12:28:28;;;;;;;245.07;192.03;;;;;16.80;95607.00;;;;4955655;28;20207;-69
2024/03/03 12:31:18;;;;;;;260.77;208.47;;;;;17.50;95616.00;;;;4985672;28;20210;-67
2024/03/03 12:34:08;;;;;;;258.93;203.93;;;;;17.20;95593.00;;;;4982909;28;20203;-67
2024/03/03 12:36:58;;;;;;;255.70;203.70;;;;;17.70;95605.00;;;;4982335;28;20602;-70
2024/03/03 12:39:47;;;;;;;250.37;204.90;;;;;17.80;95587.00;;;;4988799;28;20221;-67
2024/03/03 12:42:36;;;;;;;248.93;205.53;;;;;17.10;95611.00;;;;4987023;28;20215;-68
2024/03/03 12:45:26;;;;;;;245.43;202.20;;;;;17.20;95598.00;;;;4987805;28;20245;-67
2024/03/03 12:48:15;;;;;;;256.03;209.77;;;;;17.50;95646.00;;;;4985927;28;20209;-67
2024/03/03 12:51:06;;;;;;;247.23;203.23;;;;;17.00;95636.00;;;;4986750;28;20677;-70
2024/03/03 12:53:55;;;;;;;243.70;198.43;;;;;17.20;95632.00;;;;4988263;28;20765;-66
2024/03/03 12:56:46;;;;;;;251.47;203.80;;;;;17.80;95602.00;;;;4987394;28;20711;-70
2024/03/03 12:59:35;;;;;;;264.33;211.43;;;;;17.50;95583.00;;;;4985003;28;20234;-66
2024/03/03 13:02:24;;;;;;;252.57;208.63;;;;;18.00;95597.00;;;;4988614;28;20922;-67
2024/03/03 13:05:15;;;;;;;263.83;209.40;;;;;18.30;95592.00;;;;4987843;28;20218;-69
2024/03/03 13:08:06;;;;;;;272.77;222.10;;;;;17.70;95603.00;;;;4986290;28;20598;-67
2024/03/03 13:10:55;;;;;;;269.20;222.43;;;;;18.40;95598.00;;;;4985365;28;20219;-67
2024/03/03 13:13:44;;;;;;;280.80;225.93;;;;;20.60;95609.00;;;;4986888;28;20206;-67
2024/03/03 13:16:35;;;;;;;316.17;250.53;;;;;18.50;95594.00;;;;4983809;28;20246;-70
2024/03/03 13:19:24;;;;;;;315.63;258.00;;;;;18.10;95611.00;;;;4982065;28;20246;-70
2024/03/03 13:22:13;;;;;;;309.67;256.57;;;;;18.30;95606.00;;;;4985186;28;20203;-69
2024/03/03 13:25:04;;;;;;;310.97;254.50;;;;;19.30;95600.00;;;;4988913;28;20242;-70
2024/03/03 13:27:54;;;;;;;293.37;250.40;;;;;18.40;95615.00;;;;4995787;28;20206;-67
2024/03/03 13:30:55;;;;;;;305.60;255.27;;;;;18.00;95587.00;;;;4985335;28;20242;-69
2024/03/03 13:33:44;;;;;;;286.20;241.67;;;;;18.00;95591.00;;;;4982997;28;20228;-70
2024/03/03 13:36:33;;;;;;;286.43;236.60;;;;;17.80;95574.00;;;;4983863;28;20230;-68
2024/03/03 13:39:23;;;;;;;304.90;244.97;;;;;17.80;95602.00;;;;4977916;28;20229;-70